Time;durP1;ratioP1;P1;durP2;ratioP2;P2;SDS_P1;SDS_P2;PMS_P1;PMS_P2;Temp;Humidity;BMP_temperature;BMP_pressure;BME280_temperature;BME280_humidity;BME280_pressure;Samples;Min_cycle;Max_cycle;Signal;HPM_P1;HPM_P2
2021/11/06 00:01:02;;;;;;;36.40;14.87;;;;;;;15.59;76.18;95413.44;5133549;27;20822;-81
2021/11/06 00:03:28;;;;;;;28.60;14.03;;;;;;;15.59;75.77;95405.50;5134469;27;20553;-81
2021/11/06 00:05:56;;;;;;;26.03;12.07;;;;;;;15.61;75.54;95415.94;5098708;27;20873;-80
2021/11/06 00:08:23;;;;;;;28.87;12.33;;;;;;;15.62;75.57;95407.06;5134191;27;20525;-81
2021/11/06 00:10:50;;;;;;;27.03;12.53;;;;;;;15.63;75.21;95414.84;5134388;27;20466;-80
2021/11/06 00:13:18;;;;;;;30.10;14.27;;;;;;;15.58;75.09;95409.13;5097880;27;20439;-81
2021/11/06 00:15:46;;;;;;;22.23;11.53;;;;;;;15.60;75.20;95406.34;5134387;27;20450;-81
2021/11/06 00:18:13;;;;;;;23.33;13.00;;;;;;;15.57;75.54;95393.38;5134251;27;20446;-81
2021/11/06 00:20:40;;;;;;;27.10;14.10;;;;;;;15.54;75.04;95398.97;5133993;27;20525;-81
2021/11/06 00:23:07;;;;;;;31.97;13.10;;;;;;;15.50;75.24;95406.38;5098093;27;20958;-81
2021/11/06 00:25:34;;;;;;;19.07;11.27;;;;;;;15.47;75.43;95410.13;5133774;27;21004;-81
2021/11/06 00:28:01;;;;;;;23.83;12.10;;;;;;;15.44;75.48;95409.59;5133781;27;20482;-81
2021/11/06 00:30:29;;;;;;;29.43;14.13;;;;;;;15.41;74.92;95405.44;5133799;27;20465;-81
2021/11/06 00:32:57;;;;;;;24.20;11.77;;;;;;;15.44;75.17;95410.44;5133884;27;20470;-81
2021/11/06 00:35:24;;;;;;;25.27;11.87;;;;;;;15.45;74.95;95413.91;5134536;27;20438;-81
2021/11/06 00:37:51;;;;;;;17.10;11.63;;;;;;;15.42;74.72;95420.34;5133648;27;20853;-81
2021/11/06 00:40:19;;;;;;;40.80;13.13;;;;;;;15.35;74.27;95424.56;5133732;27;20446;-81
2021/11/06 00:42:46;;;;;;;22.47;12.20;;;;;;;15.41;73.93;95426.59;5133829;28;20526;-81
2021/11/06 00:45:14;;;;;;;28.40;11.10;;;;;;;15.41;73.24;95423.97;5133629;28;20883;-82
2021/11/06 00:47:44;;;;;;;32.10;11.70;;;;;;;15.46;72.79;95428.81;5133374;28;20980;-81
2021/11/06 00:50:15;;;;;;;31.63;10.27;;;;;;;15.58;72.45;95434.72;5133897;27;20447;-81
2021/11/06 00:52:43;;;;;;;32.70;12.63;;;;;;;15.58;72.34;95437.38;5133765;28;20446;-81
2021/11/06 00:55:10;;;;;;;30.60;12.00;;;;;;;15.44;72.86;95431.59;5133677;28;20565;-82
2021/11/06 00:57:37;;;;;;;20.60;10.97;;;;;;;15.56;72.91;95434.88;5133615;27;20808;-81
2021/11/06 01:00:07;;;;;;;27.07;12.60;;;;;;;15.60;73.30;95435.44;5133953;27;20467;-82
2021/11/06 01:02:34;;;;;;;33.63;13.33;;;;;;;15.62;73.60;95434.34;5133713;28;20527;-81
2021/11/06 01:05:04;;;;;;;21.53;11.83;;;;;;;15.66;74.56;95440.16;5133312;28;20903;-81
2021/11/06 01:07:30;;;;;;;30.13;14.80;;;;;;;15.68;73.91;95432.91;5133463;28;20484;-82
2021/11/06 01:09:57;;;;;;;35.70;16.30;;;;;;;15.75;74.07;95436.63;5133923;28;20482;-81
2021/11/06 01:12:24;;;;;;;33.37;13.00;;;;;;;15.77;73.35;95438.13;5135433;27;20822;-81
2021/11/06 01:14:51;;;;;;;34.13;11.77;;;;;;;15.76;73.13;95430.34;5137841;27;20513;-81
2021/11/06 01:17:18;;;;;;;23.70;10.83;;;;;;;15.77;73.22;95435.47;5137429;27;20537;-81
2021/11/06 01:19:45;;;;;;;24.13;9.70;;;;;;;15.70;72.97;95429.13;5137368;27;20522;-81
2021/11/06 01:22:14;;;;;;;21.90;9.90;;;;;;;15.66;72.07;95434.88;5137390;27;20521;-81
2021/11/06 01:24:41;;;;;;;19.60;11.13;;;;;;;15.56;72.17;95439.31;5137599;27;20875;-81
2021/11/06 01:27:10;;;;;;;25.40;11.60;;;;;;;15.47;72.34;95449.81;5137263;27;20567;-81
2021/11/06 01:29:37;;;;;;;28.90;11.30;;;;;;;15.45;72.39;95454.41;5137373;27;20454;-81
2021/11/06 01:32:06;;;;;;;21.27;10.83;;;;;;;15.41;72.91;95447.75;5137480;27;20438;-81
2021/11/06 01:34:33;;;;;;;31.77;11.83;;;;;;;15.37;73.60;95451.69;5137159;27;20492;-82
2021/11/06 01:37:00;;;;;;;21.23;12.23;;;;;;;15.42;73.69;95452.06;5137177;27;20529;-81
2021/11/06 01:39:29;;;;;;;18.30;10.50;;;;;;;15.42;73.11;95459.16;5137189;27;20534;-81
2021/11/06 01:41:56;;;;;;;30.73;13.10;;;;;;;14.81;76.77;95454.34;5136974;27;20451;-81
2021/11/06 01:44:23;;;;;;;26.53;12.50;;;;;;;14.82;77.43;95456.84;5137118;27;20434;-82
2021/11/06 01:46:51;;;;;;;35.90;13.20;;;;;;;14.86;78.01;95460.03;5136982;27;20561;-81
2021/11/06 01:49:20;;;;;;;39.27;14.30;;;;;;;14.84;78.05;95457.53;5137087;27;20480;-81
2021/11/06 01:51:47;;;;;;;26.10;11.87;;;;;;;14.88;77.78;95458.91;5136893;27;20942;-82
2021/11/06 01:54:14;;;;;;;23.10;13.27;;;;;;;14.90;78.51;95471.97;5136756;27;20881;-81
2021/11/06 01:56:44;;;;;;;34.07;13.50;;;;;;;14.86;78.18;95463.50;5137146;27;20544;-81
2021/11/06 01:59:11;;;;;;;34.37;12.60;;;;;;;14.91;78.80;95470.19;5136768;27;20447;-81
2021/11/06 02:01:39;;;;;;;23.70;11.70;;;;;;;14.92;78.64;95459.47;5137222;27;20453;-81
2021/11/06 02:04:06;;;;;;;50.13;14.07;;;;;;;14.92;78.36;95461.28;5136786;27;20557;-81
2021/11/06 02:06:33;;;;;;;31.00;12.23;;;;;;;14.98;78.32;95465.97;5136696;27;20525;-81
2021/11/06 02:09:00;;;;;;;21.23;11.03;;;;;;;14.81;78.63;95457.00;5136639;27;20533;-81
2021/11/06 02:11:28;;;;;;;30.47;12.23;;;;;;;14.69;78.90;95460.75;5136898;27;20449;-81
2021/11/06 02:13:57;;;;;;;29.03;13.90;;;;;;;14.68;79.36;95452.00;5136920;27;20898;-81
2021/11/06 02:16:24;;;;;;;26.07;14.60;;;;;;;14.67;79.45;95458.25;5136701;27;20530;-81
2021/11/06 02:18:51;;;;;;;29.03;16.97;;;;;;;14.66;79.93;95461.88;5100232;27;20477;-81
2021/11/06 02:21:20;;;;;;;36.50;17.33;;;;;;;14.65;80.61;95462.84;5136353;27;20804;-81
2021/11/06 02:23:49;;;;;;;42.67;16.70;;;;;;;14.64;80.94;95455.06;5135479;27;20482;-81
2021/11/06 02:26:18;;;;;;;21.30;13.23;;;;;;;14.62;80.92;95465.75;5136323;27;20522;-81
2021/11/06 02:28:46;;;;;;;28.53;13.60;;;;;;;14.59;81.05;95471.34;5136257;27;20489;-81
2021/11/06 02:31:13;;;;;;;33.03;15.00;;;;;;;14.57;81.31;95481.19;5136361;27;20450;-81
2021/11/06 02:33:41;;;;;;;30.70;15.47;;;;;;;14.59;81.82;95481.06;5136324;27;20857;-81
2021/11/06 02:36:08;;;;;;;27.87;15.13;;;;;;;14.65;81.59;95483.97;5136340;27;20450;-81
2021/11/06 02:38:37;;;;;;;34.47;15.27;;;;;;;14.56;81.73;95477.72;5116641;27;20442;-81
2021/11/06 02:41:03;;;;;;;33.00;15.07;;;;;;;14.68;81.24;95490.78;5136019;27;20435;-81
2021/11/06 02:43:30;;;;;;;37.17;14.10;;;;;;;14.70;80.74;95494.94;5099672;27;20447;-81
2021/11/06 02:45:57;;;;;;;25.03;12.90;;;;;;;14.74;80.47;95496.31;5135865;27;21008;-81
2021/11/06 02:48:24;;;;;;;26.90;12.13;;;;;;;14.68;80.52;95491.59;5135740;27;20575;-81
2021/11/06 02:50:52;;;;;;;30.10;12.27;;;;;;;14.70;81.03;95505.50;5135979;27;20474;-81
2021/11/06 02:53:19;;;;;;;20.47;13.30;;;;;;;14.66;80.72;95519.97;5136288;27;20525;-82
2021/11/06 02:55:48;;;;;;;24.23;13.93;;;;;;;14.69;80.95;95511.78;5135853;27;20431;-81
2021/11/06 02:58:15;;;;;;;27.17;12.17;;;;;;;14.66;79.53;95519.16;5135611;27;20459;-81
2021/11/06 03:00:42;;;;;;;28.97;12.77;;;;;;;14.61;79.93;95521.38;5135619;27;20944;-81
2021/11/06 03:03:10;;;;;;;23.00;12.57;;;;;;;14.59;78.97;95528.59;5135330;27;20504;-82
2021/11/06 03:05:37;;;;;;;27.53;11.80;;;;;;;14.45;78.41;95527.19;5135527;27;20474;-82
2021/11/06 03:08:04;;;;;;;23.27;10.40;;;;;;;14.54;78.63;95537.78;5135332;27;20471;-82
2021/11/06 03:10:31;;;;;;;30.80;12.13;;;;;;;14.46;78.09;95521.81;5135195;27;20927;-82
2021/11/06 03:13:01;;;;;;;33.00;12.30;;;;;;;14.44;78.06;95522.88;5099237;27;20522;-82
2021/11/06 03:15:28;;;;;;;27.10;12.40;;;;;;;14.46;78.38;95524.44;5135242;27;20478;-82
2021/11/06 03:17:55;;;;;;;27.67;10.90;;;;;;;14.48;78.39;95532.22;5135159;27;20447;-81
2021/11/06 03:20:22;;;;;;;28.20;10.63;;;;;;;14.52;78.29;95530.97;5135032;27;20940;-82
2021/11/06 03:22:56;;;;;;;21.33;10.90;;;;;;;14.57;78.00;95529.56;5135154;27;20936;-82
2021/11/06 03:25:23;;;;;;;19.17;10.20;;;;;;;14.58;77.72;95533.06;5135014;27;20438;-82
2021/11/06 03:27:50;;;;;;;21.60;12.77;;;;;;;14.64;77.14;95535.13;5134815;27;20561;-82
2021/11/06 03:30:19;;;;;;;25.20;11.47;;;;;;;14.67;77.47;95529.56;5134870;27;20526;-82
2021/11/06 03:32:46;;;;;;;28.27;10.67;;;;;;;14.56;77.88;95535.84;5134998;27;20469;-82
2021/11/06 03:35:14;;;;;;;18.73;10.63;;;;;;;14.67;77.50;95541.94;5134392;27;20443;-82
2021/11/06 03:37:42;;;;;;;22.33;10.60;;;;;;;14.69;77.33;95538.19;5134718;27;20799;-82
2021/11/06 03:40:10;;;;;;;25.87;11.53;;;;;;;14.68;77.12;95541.81;5134720;27;20541;-82
2021/11/06 03:42:38;;;;;;;25.87;10.37;;;;;;;14.64;77.22;95540.41;5098898;27;20449;-82
2021/11/06 03:45:06;;;;;;;16.13;10.30;;;;;;;14.71;77.29;95544.16;5134623;27;20447;-82
2021/11/06 03:47:35;;;;;;;30.53;10.33;;;;;;;14.75;76.79;95545.56;5134369;27;20486;-82
2021/11/06 03:50:02;;;;;;;18.53;10.20;;;;;;;14.69;77.02;95540.81;5134660;27;20450;-82
2021/11/06 03:52:29;;;;;;;27.20;10.43;;;;;;;14.74;77.10;95543.88;5134806;27;20541;-83
2021/11/06 03:54:56;;;;;;;39.33;10.17;;;;;;;14.79;77.07;95549.59;5134566;27;20450;-82
2021/11/06 03:57:23;;;;;;;25.50;11.00;;;;;;;14.79;76.88;95548.78;5134531;27;20442;-83
2021/11/06 03:59:50;;;;;;;31.73;11.97;;;;;;;14.84;76.70;95550.03;5098289;27;20434;-83
2021/11/06 04:02:17;;;;;;;22.47;11.50;;;;;;;14.78;76.43;95552.38;5098596;27;20921;-83
2021/11/06 04:04:47;;;;;;;28.03;10.70;;;;;;;14.83;76.57;95566.84;5134237;27;20481;-84
2021/11/06 04:07:14;;;;;;;20.47;10.30;;;;;;;14.78;76.43;95576.16;5134798;27;20811;-84
2021/11/06 04:09:41;;;;;;;36.70;10.63;;;;;;;14.84;76.68;95588.81;5134976;27;20438;-83
2021/11/06 04:12:08;;;;;;;23.70;10.37;;;;;;;14.84;76.73;95562.41;5134379;27;20443;-84
2021/11/06 04:14:36;;;;;;;30.03;10.87;;;;;;;14.44;78.62;95552.75;5120900;27;20480;-84
2021/11/06 04:17:03;;;;;;;30.60;11.70;;;;;;;14.60;78.19;95560.16;5123701;27;20766;-84
2021/11/06 04:19:30;;;;;;;32.23;9.00;;;;;;;14.66;78.10;95559.59;5082567;27;20842;-84
2021/11/06 04:21:59;;;;;;;22.60;11.43;;;;;;;14.72;78.01;95559.03;5134662;27;20427;-83
2021/11/06 04:24:26;;;;;;;21.57;9.47;;;;;;;14.72;77.76;95555.56;5134685;27;20443;-85
2021/11/06 04:26:53;;;;;;;24.60;10.43;;;;;;;14.71;77.75;95549.44;5135139;27;20545;-83
2021/11/06 04:29:20;;;;;;;23.00;10.87;;;;;;;14.73;78.05;95533.47;5078573;28;20479;-83
2021/11/06 04:31:47;;;;;;;37.47;15.83;;;;;;;14.79;77.58;95544.31;5114515;28;20510;-83
2021/11/06 04:34:14;;;;;;;28.10;13.53;;;;;;;14.79;78.09;95552.25;5113835;28;20447;-83
2021/11/06 04:36:41;;;;;;;24.00;12.77;;;;;;;14.80;77.96;95558.38;5114015;28;20483;-83
2021/11/06 04:39:10;;;;;;;26.57;13.13;;;;;;;14.80;78.43;95569.78;5113774;28;20793;-83
2021/11/06 04:41:37;;;;;;;31.80;11.80;;;;;;;14.82;78.00;95577.56;5113966;28;20515;-83
2021/11/06 04:44:04;;;;;;;27.40;10.50;;;;;;;14.71;77.71;95581.16;5113869;28;20434;-84
2021/11/06 04:46:31;;;;;;;21.67;10.40;;;;;;;14.71;78.29;95586.44;5114218;28;20435;-85
2021/11/06 04:48:58;;;;;;;35.60;11.20;;;;;;;14.75;78.77;95579.94;5114084;28;20501;-83
2021/11/06 04:51:25;;;;;;;19.60;11.10;;;;;;;14.69;79.49;95588.38;5114161;28;20526;-85
2021/11/06 04:53:52;;;;;;;23.10;12.37;;;;;;;14.74;78.94;95598.53;5113676;28;20440;-82
2021/11/06 04:56:21;;;;;;;22.40;12.13;;;;;;;14.73;78.62;95595.06;5113879;28;20489;-82
2021/11/06 04:58:48;;;;;;;32.03;10.90;;;;;;;14.71;78.60;95606.72;5113595;28;20904;-81
2021/11/06 05:01:15;;;;;;;29.23;12.13;;;;;;;14.72;78.32;95603.94;5113520;28;20532;-82
2021/11/06 05:03:42;;;;;;;26.47;10.70;;;;;;;14.71;78.57;95612.84;5113271;28;20463;-82
2021/11/06 05:06:09;;;;;;;23.30;12.80;;;;;;;14.73;79.12;95607.44;5113598;28;20440;-83
2021/11/06 05:08:36;;;;;;;19.37;9.77;;;;;;;14.76;78.92;95617.75;5113599;28;20510;-83
2021/11/06 05:11:04;;;;;;;19.50;11.57;;;;;;;14.76;80.07;95612.47;5113794;28;21050;-85
2021/11/06 05:13:32;;;;;;;25.83;10.50;;;;;;;14.73;78.50;95615.34;5113898;28;20471;-85
2021/11/06 05:15:59;;;;;;;28.10;12.23;;;;;;;14.69;78.29;95638.56;5113727;28;20515;-84
2021/11/06 05:18:26;;;;;;;19.37;11.50;;;;;;;14.70;78.45;95639.41;5113770;28;20478;-83
2021/11/06 05:20:54;;;;;;;30.03;13.30;;;;;;;14.70;78.95;95632.31;5113935;28;20447;-87
2021/11/06 05:23:21;;;;;;;26.00;11.50;;;;;;;14.71;78.32;95639.25;5113690;28;20451;-82
2021/11/06 05:25:48;;;;;;;26.40;11.80;;;;;;;14.81;81.38;95634.84;5113426;28;20436;-82
2021/11/06 05:28:18;;;;;;;19.50;10.70;;;;;;;14.78;80.33;95645.69;5113491;28;20558;-82
2021/11/06 05:30:46;;;;;;;23.57;12.67;;;;;;;14.80;78.74;95649.03;5113586;28;20526;-81
2021/11/06 05:33:14;;;;;;;28.87;12.10;;;;;;;14.85;78.52;95656.53;5113366;28;20463;-81
2021/11/06 05:35:41;;;;;;;28.97;14.37;;;;;;;14.92;78.53;95664.75;5113603;28;20435;-81
2021/11/06 05:38:08;;;;;;;39.20;17.87;;;;;;;14.99;78.41;95665.88;5078067;28;20440;-81
2021/11/06 05:40:35;;;;;;;33.47;17.73;;;;;;;15.06;78.19;95661.72;5113201;28;20456;-81
2021/11/06 05:43:02;;;;;;;31.90;15.47;;;;;;;15.16;78.13;95657.25;5112958;28;20522;-81
2021/11/06 05:45:29;;;;;;;40.60;14.43;;;;;;;15.27;77.93;95648.34;5114021;28;20499;-81
2021/11/06 05:47:58;;;;;;;36.70;15.53;;;;;;;15.38;77.98;95642.91;5113430;28;20547;-81
2021/11/06 05:50:25;;;;;;;37.47;14.07;;;;;;;15.57;77.84;95649.97;5112613;28;20444;-80
2021/11/06 05:52:52;;;;;;;31.67;14.60;;;;;;;15.84;76.22;95649.25;5112651;28;20431;-81
2021/11/06 05:55:19;;;;;;;32.47;13.43;;;;;;;15.94;76.02;95655.38;5112492;28;20546;-81
2021/11/06 05:57:46;;;;;;;25.93;13.63;;;;;;;15.97;75.24;95649.78;5112624;28;20435;-81
2021/11/06 06:00:16;;;;;;;27.23;14.13;;;;;;;15.99;74.91;95664.56;5115727;28;20448;-81
2021/11/06 06:02:43;;;;;;;27.70;14.67;;;;;;;16.00;75.26;95676.81;5115916;28;20510;-81
2021/11/06 06:05:13;;;;;;;24.33;13.50;;;;;;;15.96;75.10;95675.44;5115872;28;20443;-81
2021/11/06 06:07:41;;;;;;;23.17;13.17;;;;;;;15.93;75.30;95681.00;5117008;28;20519;-81
2021/11/06 06:10:11;;;;;;;34.03;15.73;;;;;;;15.95;75.81;95689.66;5116034;28;20523;-81
2021/11/06 06:12:38;;;;;;;24.50;11.53;;;;;;;15.91;75.19;95687.44;5116147;28;20446;-81
2021/11/06 06:15:06;;;;;;;21.90;13.20;;;;;;;15.88;75.33;95691.16;5116099;28;20451;-81
2021/11/06 06:17:33;;;;;;;30.03;14.73;;;;;;;15.96;75.44;95701.91;5116020;28;21003;-81
2021/11/06 06:20:00;;;;;;;32.90;13.90;;;;;;;15.96;75.66;95707.19;5115755;28;20938;-83
2021/11/06 06:22:28;;;;;;;36.40;17.00;;;;;;;15.94;75.51;95714.44;5115784;28;20788;-82
2021/11/06 06:24:55;;;;;;;35.87;19.27;;;;;;;15.93;76.15;95718.06;5115749;28;20941;-81
2021/11/06 06:27:22;;;;;;;42.23;17.63;;;;;;;15.80;76.33;95728.09;5116135;28;20511;-82
2021/11/06 06:29:49;;;;;;;30.27;17.17;;;;;;;15.84;77.05;95728.66;5115609;28;20565;-82
2021/11/06 06:32:16;;;;;;;33.37;17.70;;;;;;;15.79;76.81;95737.03;5115433;28;20446;-82
2021/11/06 06:34:43;;;;;;;35.27;14.97;;;;;;;15.74;77.10;95731.31;5115512;28;20516;-82
2021/11/06 06:37:10;;;;;;;30.17;14.83;;;;;;;15.75;77.27;95741.75;5115640;28;20447;-83
2021/11/06 06:39:39;;;;;;;36.70;13.97;;;;;;;15.75;77.53;95748.88;5115547;28;20457;-82
2021/11/06 06:42:06;;;;;;;28.90;15.47;;;;;;;15.84;77.11;95766.53;5115677;28;20428;-82
2021/11/06 06:44:33;;;;;;;36.13;15.37;;;;;;;15.87;77.23;95768.91;5096436;28;20518;-82
2021/11/06 06:47:01;;;;;;;33.80;14.80;;;;;;;15.88;77.32;95756.50;5115481;28;20855;-83
2021/11/06 06:49:28;;;;;;;32.97;17.20;;;;;;;15.56;77.64;95762.91;5115383;28;20842;-82
2021/11/06 06:51:55;;;;;;;32.97;15.10;;;;;;;15.19;79.36;95781.25;5115221;28;20534;-83
2021/11/06 06:54:23;;;;;;;30.30;15.50;;;;;;;15.24;81.32;95779.03;5115254;28;20450;-82
2021/11/06 06:56:51;;;;;;;26.83;13.77;;;;;;;15.11;83.02;95762.59;5115384;28;20539;-83
2021/11/06 06:59:18;;;;;;;36.93;15.30;;;;;;;15.25;82.60;95787.78;5115076;28;20478;-82
2021/11/06 07:01:46;;;;;;;24.23;14.13;;;;;;;15.36;82.77;95780.59;5115159;28;20436;-82
2021/11/06 07:04:13;;;;;;;27.33;15.93;;;;;;;15.43;83.28;95783.50;5115266;28;20505;-83
2021/11/06 07:06:40;;;;;;;20.63;12.63;;;;;;;15.41;83.92;95772.22;5115858;28;20484;-82
2021/11/06 07:09:08;;;;;;;36.70;14.60;;;;;;;15.27;85.79;95789.31;5114903;28;20835;-83
2021/11/06 07:11:35;;;;;;;22.07;13.63;;;;;;;15.30;86.41;95789.03;5114313;28;20455;-82
2021/11/06 07:14:04;;;;;;;27.77;15.20;;;;;;;15.41;86.64;95780.16;5115164;28;20790;-84
2021/11/06 07:16:31;;;;;;;25.10;15.30;;;;;;;15.40;87.18;95781.97;5095878;28;20431;-83
2021/11/06 07:18:59;;;;;;;27.67;13.93;;;;;;;15.37;87.71;95774.31;5114949;28;20443;-83
2021/11/06 07:21:25;;;;;;;26.93;14.73;;;;;;;15.42;86.95;95776.56;5114777;28;20918;-83
2021/11/06 07:23:52;;;;;;;18.80;11.97;;;;;;;15.22;87.59;95770.38;5114386;28;20893;-84
2021/11/06 07:26:19;;;;;;;24.30;13.43;;;;;;;15.38;87.46;95775.16;5114840;28;20478;-83
2021/11/06 07:28:46;;;;;;;21.50;13.50;;;;;;;15.55;86.54;95765.69;5115000;28;20564;-83
2021/11/06 07:31:16;;;;;;;19.10;12.50;;;;;;;15.63;85.74;95771.16;5114809;28;20450;-83
2021/11/06 07:33:43;;;;;;;25.47;12.67;;;;;;;15.55;85.21;95760.38;5114614;28;20446;-83
2021/11/06 07:36:10;;;;;;;24.03;12.73;;;;;;;15.74;85.04;95766.56;5114414;28;20875;-83
2021/11/06 07:38:37;;;;;;;23.20;13.50;;;;;;;15.94;85.04;95759.44;5114692;28;20443;-83
2021/11/06 07:41:04;;;;;;;28.97;12.50;;;;;;;16.15;84.52;95771.66;5114461;28;20439;-83
2021/11/06 07:43:33;;;;;;;20.13;13.07;;;;;;;16.30;83.72;95755.19;5114463;28;20504;-84
2021/11/06 07:46:00;;;;;;;23.63;12.27;;;;;;;16.41;82.41;95759.47;5114177;28;20453;-84
2021/11/06 07:48:29;;;;;;;25.67;11.73;;;;;;;16.63;81.72;95764.41;5078303;28;20454;-84
2021/11/06 07:50:56;;;;;;;32.10;12.90;;;;;;;16.79;80.95;95765.66;5114221;28;20447;-84
2021/11/06 07:53:26;;;;;;;24.93;12.10;;;;;;;16.99;79.76;95756.59;5114092;28;20542;-81
2021/11/06 07:55:53;;;;;;;24.37;12.07;;;;;;;17.18;78.76;95764.44;5114058;28;20956;-82
2021/11/06 07:58:21;;;;;;;22.87;12.70;;;;;;;17.26;77.71;95769.81;5113782;28;20483;-81
2021/11/06 08:00:48;;;;;;;19.77;13.47;;;;;;;17.12;77.89;95759.75;5113981;28;20538;-82
2021/11/06 08:03:16;;;;;;;29.47;12.13;;;;;;;17.18;78.19;95763.63;5113814;28;20490;-82
2021/11/06 08:05:45;;;;;;;23.30;12.40;;;;;;;17.16;77.88;95762.94;5114174;28;20435;-82
2021/11/06 08:08:12;;;;;;;22.10;15.97;;;;;;;17.16;78.10;95773.53;5114009;28;20952;-82
2021/11/06 08:10:39;;;;;;;24.30;13.57;;;;;;;17.14;78.46;95767.56;5114179;28;20489;-82
2021/11/06 08:13:07;;;;;;;26.27;13.80;;;;;;;17.20;77.82;95761.63;5114217;28;20511;-83
2021/11/06 08:15:34;;;;;;;31.90;13.97;;;;;;;17.24;78.43;95763.84;5077991;28;20447;-84
2021/11/06 08:18:01;;;;;;;18.13;11.00;;;;;;;17.33;77.39;95767.41;5060940;28;20447;-84
2021/11/06 08:20:28;;;;;;;21.00;12.47;;;;;;;17.38;77.14;95774.94;5113809;28;20443;-84
2021/11/06 08:22:57;;;;;;;21.17;11.83;;;;;;;17.39;77.33;95787.22;5112729;28;20522;-84
2021/11/06 08:25:24;;;;;;;20.53;12.47;;;;;;;17.36;78.05;95787.53;5113491;28;20451;-84
2021/11/06 08:27:54;;;;;;;21.83;12.90;;;;;;;17.43;77.54;95793.91;5114002;28;20842;-84
2021/11/06 08:30:22;;;;;;;29.90;14.67;;;;;;;17.48;77.61;95787.16;5113510;28;20475;-84
2021/11/06 08:32:53;;;;;;;21.93;14.67;;;;;;;17.45;78.36;95787.44;5113872;28;20861;-81
2021/11/06 08:35:21;;;;;;;25.63;13.53;;;;;;;17.46;77.16;95793.59;5113232;28;20930;-81
2021/11/06 08:37:50;;;;;;;25.93;13.40;;;;;;;17.59;77.46;95800.19;5113658;28;20455;-81
2021/11/06 08:40:18;;;;;;;23.80;13.83;;;;;;;17.56;77.54;95800.50;5113594;28;20483;-83
2021/11/06 08:42:46;;;;;;;27.20;12.67;;;;;;;17.55;78.07;95792.69;5113661;28;20494;-82
2021/11/06 08:45:15;;;;;;;16.63;12.20;;;;;;;17.57;77.75;95794.19;5113299;28;20479;-81
2021/11/06 08:47:43;;;;;;;18.80;13.83;;;;;;;17.56;77.89;95789.03;5113430;28;20775;-84
2021/11/06 08:50:12;;;;;;;22.77;13.20;;;;;;;17.52;77.91;95798.28;5113289;28;20519;-82
2021/11/06 08:52:39;;;;;;;23.20;14.83;;;;;;;17.50;78.35;95785.19;5060928;28;20518;-84
2021/11/06 08:55:10;;;;;;;16.27;10.67;;;;;;;17.45;78.62;95784.81;5113371;28;20482;-82
2021/11/06 08:57:40;;;;;;;19.80;12.30;;;;;;;17.45;78.64;95787.44;5113583;28;20804;-82
2021/11/06 09:00:11;;;;;;;23.80;14.80;;;;;;;17.40;78.91;95792.38;5113666;28;20486;-82
2021/11/06 09:02:39;;;;;;;23.60;13.70;;;;;;;17.37;80.17;95789.19;5113303;28;20933;-82
2021/11/06 09:05:08;;;;;;;34.33;19.23;;;;;;;17.41;80.18;95788.75;5113370;28;20458;-82
2021/11/06 09:07:35;;;;;;;21.90;13.60;;;;;;;17.38;79.15;95796.16;5113173;28;20453;-82
2021/11/06 09:10:04;;;;;;;21.67;12.77;;;;;;;17.51;79.76;95801.94;5113279;28;20499;-82
2021/11/06 09:12:31;;;;;;;18.87;13.10;;;;;;;17.50;79.38;95801.09;5115701;28;20553;-82
2021/11/06 09:15:00;;;;;;;21.83;14.57;;;;;;;17.45;79.48;95803.38;5121236;28;20835;-82
2021/11/06 09:17:27;;;;;;;23.10;13.80;;;;;;;17.56;79.79;95802.31;5115707;28;20447;-82
2021/11/06 09:19:54;;;;;;;33.73;15.77;;;;;;;17.49;79.42;95798.59;5112853;28;20542;-81
2021/11/06 09:22:22;;;;;;;21.47;14.40;;;;;;;17.64;78.76;95797.09;5112962;28;20440;-83
2021/11/06 09:24:50;;;;;;;26.23;15.47;;;;;;;17.69;78.12;95805.47;5112906;28;20972;-82
2021/11/06 09:27:18;;;;;;;37.73;22.47;;;;;;;17.67;78.11;95806.59;5112937;28;20543;-82
2021/11/06 09:29:45;;;;;;;30.43;19.37;;;;;;;17.70;79.00;95804.50;5113007;28;20489;-82
2021/11/06 09:32:13;;;;;;;25.03;16.33;;;;;;;17.70;78.35;95808.97;5112853;28;20489;-82
2021/11/06 09:34:40;;;;;;;28.43;16.60;;;;;;;17.68;78.65;95797.66;5116761;28;20530;-82
2021/11/06 09:37:08;;;;;;;25.27;15.63;;;;;;;17.71;78.33;95803.50;5116913;28;20763;-82
2021/11/06 09:39:36;;;;;;;23.53;15.30;;;;;;;17.70;78.59;95796.53;5116909;28;20525;-82
2021/11/06 09:42:05;;;;;;;32.03;15.43;;;;;;;17.66;78.65;95789.81;5116973;28;20443;-83
2021/11/06 09:44:34;;;;;;;27.83;16.40;;;;;;;17.43;79.13;95789.41;5116928;28;20443;-83
2021/11/06 09:47:07;;;;;;;24.30;15.40;;;;;;;17.49;79.67;95798.59;5116866;28;20442;-83
2021/11/06 09:49:36;;;;;;;25.40;16.03;;;;;;;17.53;80.34;95794.66;5066574;28;20533;-83
2021/11/06 09:52:03;;;;;;;25.73;15.90;;;;;;;17.60;79.61;95785.09;5116740;28;20448;-83
2021/11/06 09:54:31;;;;;;;22.77;15.70;;;;;;;17.57;80.11;95780.09;5116558;28;20485;-84
2021/11/06 09:56:58;;;;;;;29.50;15.60;;;;;;;17.66;79.59;95784.50;5116418;28;20449;-81
2021/11/06 09:59:26;;;;;;;26.33;16.90;;;;;;;17.68;79.83;95781.75;5116603;28;20483;-81
2021/11/06 10:01:53;;;;;;;26.83;16.50;;;;;;;17.65;79.63;95774.88;5116478;28;20439;-82
2021/11/06 10:04:20;;;;;;;27.90;16.30;;;;;;;17.57;79.67;95774.78;5116312;28;21026;-82
2021/11/06 10:06:49;;;;;;;27.57;16.53;;;;;;;17.66;79.57;95779.22;5116207;28;20538;-82
2021/11/06 10:09:17;;;;;;;29.20;16.37;;;;;;;17.72;79.72;95775.97;5116038;28;20895;-82
2021/11/06 10:11:46;;;;;;;26.80;17.30;;;;;;;17.64;79.37;95770.56;5116372;28;20435;-82
2021/11/06 10:14:17;;;;;;;25.40;16.70;;;;;;;17.69;78.95;95767.47;5116091;28;20455;-81
2021/11/06 10:16:52;;;;;;;25.90;15.27;;;;;;;17.63;78.87;95768.88;5116175;28;20448;-81
2021/11/06 10:19:22;;;;;;;24.27;16.00;;;;;;;17.76;78.73;95774.69;5115900;28;20447;-81
2021/11/06 10:22:06;;;;;;;22.40;16.47;;;;;;;17.82;78.69;95768.75;5115898;28;20548;-82
2021/11/06 10:24:43;;;;;;;32.67;18.23;;;;;;;17.88;78.52;95756.69;5115768;28;20519;-82
2021/11/06 10:27:19;;;;;;;31.73;15.27;;;;;;;17.97;78.74;95752.28;5115899;28;20534;-82
2021/11/06 10:30:01;;;;;;;24.23;15.43;;;;;;;18.11;78.51;95757.03;5115582;28;20475;-82
2021/11/06 10:32:28;;;;;;;21.73;14.63;;;;;;;18.17;77.85;95751.09;5115665;28;20438;-82
2021/11/06 10:34:55;;;;;;;26.37;16.80;;;;;;;18.29;77.98;95749.84;5115863;28;20470;-82
2021/11/06 10:37:25;;;;;;;35.03;17.27;;;;;;;18.30;76.25;95754.19;5115911;28;20929;-82
2021/11/06 10:39:57;;;;;;;26.47;16.07;;;;;;;18.26;76.24;95756.31;5115993;28;20876;-82
2021/11/06 10:42:25;;;;;;;23.30;16.10;;;;;;;18.35;76.20;95751.88;5115579;28;20488;-82
2021/11/06 10:45:08;;;;;;;26.70;15.90;;;;;;;18.44;76.07;95753.59;5114991;28;20534;-82
2021/11/06 10:47:51;;;;;;;23.73;16.50;;;;;;;18.53;75.41;95747.34;5115423;28;20530;-82
2021/11/06 10:50:37;;;;;;;36.37;17.07;;;;;;;18.69;75.76;95751.09;5115394;28;20857;-82
2021/11/06 10:53:06;;;;;;;22.50;14.87;;;;;;;18.79;74.60;95750.00;5115254;28;20874;-82
2021/11/06 10:55:34;;;;;;;29.07;17.17;;;;;;;18.86;74.84;95756.34;5115287;28;20447;-82
2021/11/06 10:58:02;;;;;;;27.23;15.80;;;;;;;18.90;74.71;95754.19;5115450;28;20550;-84
2021/11/06 11:00:29;;;;;;;25.07;15.70;;;;;;;18.95;74.09;95749.22;5115216;28;20447;-82
2021/11/06 11:02:56;;;;;;;23.63;15.67;;;;;;;18.95;73.45;95743.06;5114907;28;20439;-83
2021/11/06 11:05:37;;;;;;;22.07;15.80;;;;;;;18.86;73.87;95739.56;5079030;28;20887;-83
2021/11/06 11:08:07;;;;;;;27.47;15.90;;;;;;;18.82;74.21;95746.19;5115409;28;20465;-83
2021/11/06 11:10:35;;;;;;;19.43;13.83;;;;;;;18.89;74.29;95741.91;5114876;28;20985;-83
2021/11/06 11:13:13;;;;;;;17.90;13.30;;;;;;;18.80;73.85;95742.88;5115057;28;20475;-82
2021/11/06 11:15:41;;;;;;;21.33;13.13;;;;;;;18.81;73.98;95740.03;5114834;28;20438;-83
2021/11/06 11:18:09;;;;;;;23.90;13.80;;;;;;;18.83;74.23;95743.38;5062169;28;20942;-83
2021/11/06 11:20:39;;;;;;;26.37;13.33;;;;;;;18.96;73.18;95750.06;5115128;28;20835;-82